Terminal Aerodrome Forecast
Issued by NWS

Home | Current Version | Previous Version | Text Only | Print | Product List | Glossary On
Versions: 1 2 3 4 5 6 7 8 9 10 11 12 13 14 15 16 17 18
000
FTUS42 KFFC 281739
TAFFTY
TAF
KFTY 281739Z 2818/0118 06012KT P6SM BKN100
     FM282100 07012KT P6SM SCT040 BKN090
     FM010300 08010KT P6SM SCT015 BKN035
     FM010600 08008KT 4SM -DZ BKN015
     FM011000 08012KT 2SM -RADZ OVC004
     FM011600 08008KT 4SM -RADZ OVC006=

USA.gov is the U.S. government's official web portal to all federal, state and local government web resources and services.